Curry Rivel, United Kingdom
Current Conditions -  °F | °C
As of 3:50 PM on Wednesday 28 Jan 2015 (Local Time) from EGDY Reporting Station
Few Clouds Few Clouds  
Wind Chill: 31°   Ceiling: Unl
Heat Index: 41°   Visibility: 6mi
Dew Point: 28°   Wind: 23mph
Humidity: 61%   Direction: 290°WNW
Pressure: 29.71"   Gusts: NA
Location:  51.02°N, 2.87°W
Report Text: EGDY 281550Z 29020KT 9999 FEW012 05/M02 Q1006 BLU NOSIG
Loading
Personal Weather Stations






























Interactive Weather Map New forecast layout! Learn more

10-Day Weather Forecast

Advertisements
Track Severe Weather on mobile